createdAt,value
2019-04-07T00:00:26.519Z,0.00
2019-04-07T00:01:26.350Z,0.00
2019-04-07T00:02:26.336Z,0.00
2019-04-07T00:03:26.611Z,0.00
2019-04-07T00:04:26.467Z,0.00
2019-04-07T00:05:26.600Z,0.00
2019-04-07T00:06:26.749Z,0.00
2019-04-07T00:07:26.346Z,0.00
2019-04-07T00:08:26.229Z,0.00
2019-04-07T00:09:26.227Z,0.00
2019-04-07T00:10:26.212Z,0.00
2019-04-07T00:11:26.644Z,0.00
2019-04-07T00:12:26.503Z,0.00
2019-04-07T00:13:26.176Z,0.00
2019-04-07T00:14:26.192Z,0.00
2019-04-07T00:15:26.189Z,0.00
2019-04-07T00:16:26.438Z,0.00
2019-04-07T00:17:26.255Z,0.00
2019-04-07T00:18:26.124Z,0.00
2019-04-07T00:19:26.155Z,0.00
2019-04-07T00:20:26.687Z,0.00
2019-04-07T00:21:26.091Z,0.00
2019-04-07T00:22:26.087Z,0.00
2019-04-07T00:23:26.070Z,0.00
2019-04-07T00:24:26.070Z,0.00
2019-04-07T00:25:26.057Z,0.00
2019-04-07T00:26:26.071Z,0.00
2019-04-07T00:27:26.069Z,0.00
2019-04-07T00:28:26.023Z,0.00
2019-04-07T00:29:26.503Z,0.00
2019-04-07T00:30:26.014Z,0.00
2019-04-07T00:31:26.442Z,0.00
2019-04-07T00:32:25.995Z,0.00
2019-04-07T00:33:25.973Z,0.00
2019-04-07T00:34:25.976Z,0.00
2019-04-07T00:35:30.483Z,0.00
2019-04-07T00:36:26.937Z,0.00
2019-04-07T00:37:26.245Z,0.00
2019-04-07T00:38:25.920Z,0.00
2019-04-07T00:39:26.112Z,0.00
2019-04-07T00:40:25.896Z,0.00
2019-04-07T00:41:26.393Z,0.00
2019-04-07T00:42:25.979Z,0.00
2019-04-07T00:43:26.397Z,0.00
2019-04-07T00:44:25.849Z,0.00
2019-04-07T00:45:26.304Z,0.00
2019-04-07T00:46:25.850Z,0.00
2019-04-07T00:47:26.034Z,0.00
2019-04-07T00:48:26.009Z,0.00
2019-04-07T00:49:25.855Z,0.00
2019-04-07T00:50:25.782Z,0.00
2019-04-07T00:51:25.779Z,0.00
2019-04-07T00:52:25.775Z,0.00
2019-04-07T00:53:26.270Z,0.00
2019-04-07T00:54:25.743Z,0.00
2019-04-07T00:55:26.273Z,0.00
2019-04-07T00:56:25.881Z,0.00
2019-04-07T00:57:26.326Z,0.00
2019-04-07T00:58:25.714Z,0.00
2019-04-07T00:59:25.686Z,0.00
2019-04-07T01:00:25.680Z,0.00
2019-04-07T01:01:26.138Z,0.00
2019-04-07T01:02:26.034Z,0.00
2019-04-07T01:03:26.014Z,0.00
2019-04-07T01:04:25.654Z,0.00
2019-04-07T01:05:35.341Z,0.00
2019-04-07T01:06:26.857Z,0.00
2019-04-07T01:07:25.774Z,0.00
2019-04-07T01:08:25.992Z,0.00
2019-04-07T01:09:25.586Z,0.00
2019-04-07T01:10:26.091Z,0.00
2019-04-07T01:11:25.570Z,0.00
2019-04-07T01:12:25.684Z,0.00
2019-04-07T01:13:26.204Z,0.00
2019-04-07T01:14:25.596Z,0.00
2019-04-07T01:15:25.533Z,0.00
2019-04-07T01:16:25.506Z,0.00
2019-04-07T01:17:25.496Z,0.00
2019-04-07T01:18:26.947Z,0.00
2019-04-07T01:19:25.478Z,0.00
2019-04-07T01:20:25.964Z,0.00
2019-04-07T01:21:25.455Z,0.00
2019-04-07T01:22:25.447Z,0.00
2019-04-07T01:23:25.992Z,0.00
2019-04-07T01:24:25.424Z,0.00
2019-04-07T01:25:25.612Z,0.00
2019-04-07T01:26:25.914Z,0.00
2019-04-07T01:27:25.852Z,0.00
2019-04-07T01:28:25.391Z,0.00
2019-04-07T01:29:25.558Z,0.00
2019-04-07T01:30:25.365Z,0.00
2019-04-07T01:31:25.351Z,0.00
2019-04-07T01:32:25.722Z,0.00
2019-04-07T01:33:25.570Z,0.00
2019-04-07T01:34:25.316Z,0.00
2019-04-07T01:35:25.591Z,0.00
2019-04-07T01:36:25.796Z,0.00
2019-04-07T01:37:25.296Z,0.00
2019-04-07T01:38:25.770Z,0.00
2019-04-07T01:39:25.268Z,0.00
2019-04-07T01:40:25.818Z,0.00
2019-04-07T01:41:25.394Z,0.00
2019-04-07T01:42:25.586Z,0.00
2019-04-07T01:43:25.267Z,0.00
2019-04-07T01:44:25.624Z,0.00
2019-04-07T01:45:25.197Z,0.00
2019-04-07T01:46:26.137Z,0.00
2019-04-07T01:47:25.179Z,0.00
2019-04-07T01:48:25.711Z,0.00
2019-04-07T01:49:25.167Z,0.00
2019-04-07T01:50:25.205Z,0.00
2019-04-07T01:51:25.789Z,0.00
2019-04-07T01:52:25.129Z,0.00
2019-04-07T01:53:25.417Z,0.00
2019-04-07T01:54:25.696Z,0.00
2019-04-07T01:55:25.712Z,0.00
2019-04-07T01:56:25.078Z,0.00
2019-04-07T01:57:25.636Z,0.00
2019-04-07T01:58:25.240Z,0.00
2019-04-07T01:59:25.373Z,0.00
2019-04-07T02:00:25.055Z,0.00
2019-04-07T02:01:25.023Z,0.00
2019-04-07T02:02:25.277Z,0.00
2019-04-07T02:03:25.361Z,0.00
2019-04-07T02:04:25.006Z,0.00
2019-04-07T02:05:25.306Z,0.00
2019-04-07T02:06:25.579Z,0.00
2019-04-07T02:07:25.013Z,0.00
2019-04-07T02:08:24.955Z,0.00
2019-04-07T02:09:24.968Z,0.00
2019-04-07T02:10:25.221Z,0.00
2019-04-07T02:11:24.919Z,0.00
2019-04-07T02:12:24.916Z,0.00
2019-04-07T02:13:24.896Z,0.00
2019-04-07T02:14:25.483Z,0.00
2019-04-07T02:15:25.193Z,0.00
2019-04-07T02:16:24.891Z,0.00
2019-04-07T02:17:25.217Z,0.00
2019-04-07T02:18:24.841Z,0.00
2019-04-07T02:19:25.100Z,0.00
2019-04-07T02:20:24.819Z,0.00
2019-04-07T02:21:25.015Z,0.00
2019-04-07T02:22:25.541Z,0.00
2019-04-07T02:23:25.047Z,0.00
2019-04-07T02:24:24.821Z,0.00
2019-04-07T02:25:25.148Z,0.00
2019-04-07T02:26:24.759Z,0.00
2019-04-07T02:27:25.227Z,0.00
2019-04-07T02:28:25.421Z,0.00
2019-04-07T02:29:24.731Z,0.00
2019-04-07T02:30:24.911Z,0.00
2019-04-07T02:31:25.031Z,0.00
2019-04-07T02:32:24.937Z,0.00
2019-04-07T02:33:24.709Z,0.00
2019-04-07T02:34:25.719Z,0.00
2019-04-07T02:35:25.003Z,0.00
2019-04-07T02:36:29.559Z,0.00
2019-04-07T02:37:26.357Z,0.00
2019-04-07T02:38:24.627Z,0.00
2019-04-07T02:39:24.931Z,0.00
2019-04-07T02:40:25.167Z,0.00
2019-04-07T02:41:24.659Z,0.00
2019-04-07T02:42:25.049Z,0.00
2019-04-07T02:43:25.302Z,0.00
2019-04-07T02:44:25.333Z,0.00
2019-04-07T02:45:24.588Z,0.00
2019-04-07T02:46:24.570Z,0.00
2019-04-07T02:47:24.572Z,0.00
2019-04-07T02:48:25.154Z,0.00
2019-04-07T02:49:24.558Z,0.00
2019-04-07T02:50:24.520Z,0.00
2019-04-07T02:51:24.536Z,0.00
2019-04-07T02:52:25.124Z,0.00
2019-04-07T02:53:24.639Z,0.00
2019-04-07T02:54:24.674Z,0.00
2019-04-07T02:55:24.447Z,0.00
2019-04-07T02:56:25.118Z,0.00
2019-04-07T02:57:24.443Z,0.00
2019-04-07T02:58:25.305Z,0.00
2019-04-07T02:59:24.397Z,0.00
2019-04-07T03:00:24.727Z,0.00
2019-04-07T03:01:26.152Z,0.00
2019-04-07T03:02:25.019Z,0.00
2019-04-07T03:03:24.903Z,0.00
2019-04-07T03:04:24.538Z,0.00
2019-04-07T03:05:24.337Z,0.00
2019-04-07T03:06:37.455Z,0.00
2019-04-07T03:07:25.312Z,0.00
2019-04-07T03:08:25.112Z,0.00
2019-04-07T03:09:24.311Z,0.00
2019-04-07T03:10:25.072Z,0.00
2019-04-07T03:11:24.739Z,0.00
2019-04-07T03:12:25.077Z,0.00
2019-04-07T03:13:24.480Z,0.00
2019-04-07T03:14:24.982Z,0.00
2019-04-07T03:15:24.923Z,0.00
2019-04-07T03:16:24.467Z,0.00
2019-04-07T03:17:24.202Z,0.00
2019-04-07T03:18:26.599Z,0.00
2019-04-07T03:19:24.181Z,0.00
2019-04-07T03:20:25.026Z,0.00
2019-04-07T03:21:24.729Z,0.00
2019-04-07T03:22:24.159Z,0.00
2019-04-07T03:23:24.602Z,0.00
2019-04-07T03:24:24.544Z,0.00
2019-04-07T03:25:24.137Z,0.00
2019-04-07T03:26:24.106Z,0.00
2019-04-07T03:27:24.213Z,0.00
2019-04-07T03:28:24.105Z,0.00
2019-04-07T03:29:24.089Z,0.00
2019-04-07T03:30:25.735Z,0.00
2019-04-07T03:31:24.355Z,0.00
2019-04-07T03:32:26.961Z,0.00
2019-04-07T03:33:26.004Z,0.00
2019-04-07T03:34:26.718Z,0.00
2019-04-07T03:35:26.570Z,0.00
2019-04-07T03:36:28.198Z,0.00
2019-04-07T03:37:34.383Z,0.00
2019-04-07T03:38:25.789Z,0.00
2019-04-07T03:39:24.489Z,0.00
2019-04-07T03:40:24.331Z,0.00
2019-04-07T03:41:23.973Z,0.00
2019-04-07T03:42:24.377Z,0.00
2019-04-07T03:43:24.026Z,0.00
2019-04-07T03:44:24.464Z,0.00
2019-04-07T03:45:23.909Z,0.00
2019-04-07T03:46:23.890Z,0.00
2019-04-07T03:47:23.883Z,0.00
2019-04-07T03:48:24.648Z,0.00
2019-04-07T03:49:23.866Z,0.00
2019-04-07T03:50:23.843Z,0.00
2019-04-07T03:51:24.420Z,0.00
2019-04-07T03:52:25.003Z,0.00
2019-04-07T03:53:24.376Z,0.00
2019-04-07T03:54:24.227Z,0.00
2019-04-07T03:55:24.580Z,0.00
2019-04-07T03:56:23.794Z,0.00
2019-04-07T03:57:24.189Z,0.00
2019-04-07T03:58:24.426Z,0.00
2019-04-07T03:59:24.819Z,0.00
2019-04-07T04:00:23.740Z,0.00
2019-04-07T04:01:24.079Z,0.00
2019-04-07T04:02:23.716Z,0.00
2019-04-07T04:03:24.519Z,0.00
2019-04-07T04:04:24.293Z,0.00
2019-04-07T04:05:24.264Z,0.00
2019-04-07T04:06:23.680Z,0.00
2019-04-07T04:07:31.601Z,0.00
2019-04-07T04:08:24.665Z,0.00
2019-04-07T04:09:24.177Z,0.00
2019-04-07T04:10:23.845Z,0.00
2019-04-07T04:11:23.700Z,0.00
2019-04-07T04:12:24.437Z,0.00
2019-04-07T04:13:23.606Z,0.00
2019-04-07T04:14:23.919Z,0.00
2019-04-07T04:15:24.423Z,0.00
2019-04-07T04:16:23.663Z,4.00
2019-04-07T04:17:23.623Z,4.00
2019-04-07T04:18:23.538Z,0.00
2019-04-07T04:19:23.530Z,4.00
2019-04-07T04:20:23.976Z,4.00
2019-04-07T04:21:24.269Z,4.00
2019-04-07T04:22:23.507Z,4.00
2019-04-07T04:23:23.545Z,4.00
2019-04-07T04:24:23.483Z,4.00
2019-04-07T04:25:24.418Z,8.00
2019-04-07T04:26:23.719Z,8.00
2019-04-07T04:27:23.858Z,8.00
2019-04-07T04:28:23.718Z,12.00
2019-04-07T04:29:24.625Z,12.00
2019-04-07T04:30:23.601Z,16.00
2019-04-07T04:31:23.396Z,16.00
2019-04-07T04:32:23.407Z,20.00
2019-04-07T04:33:23.597Z,24.00
2019-04-07T04:34:23.836Z,24.00
2019-04-07T04:35:24.267Z,28.00
2019-04-07T04:36:23.994Z,32.00
2019-04-07T04:37:37.608Z,36.00
2019-04-07T04:38:24.373Z,40.00
2019-04-07T04:39:23.347Z,44.00
2019-04-07T04:40:24.195Z,48.00
2019-04-07T04:41:23.398Z,56.00
2019-04-07T04:42:23.330Z,60.00
2019-04-07T04:43:23.467Z,64.00
2019-04-07T04:44:24.145Z,68.00
2019-04-07T04:45:24.221Z,72.00
2019-04-07T04:46:23.912Z,80.00
2019-04-07T04:47:23.326Z,84.00
2019-04-07T04:48:23.725Z,92.00
2019-04-07T04:49:23.313Z,96.00
2019-04-07T04:50:23.666Z,104.00
2019-04-07T04:51:23.988Z,108.00
2019-04-07T04:52:23.996Z,116.00
2019-04-07T04:53:24.210Z,120.00
2019-04-07T04:54:23.154Z,128.00
2019-04-07T04:55:23.142Z,132.00
2019-04-07T04:56:24.081Z,140.00
2019-04-07T04:57:23.254Z,144.00
2019-04-07T04:58:23.113Z,152.00
2019-04-07T04:59:23.096Z,160.00
2019-04-07T05:00:23.084Z,164.00
2019-04-07T05:01:23.093Z,172.00
2019-04-07T05:02:23.579Z,176.00
2019-04-07T05:03:23.049Z,184.00
2019-04-07T05:04:23.265Z,188.00
2019-04-07T05:05:23.233Z,196.00
2019-04-07T05:06:23.032Z,200.00
2019-04-07T05:07:23.056Z,208.00
2019-04-07T05:08:23.683Z,212.00
2019-04-07T05:09:23.204Z,216.00
2019-04-07T05:10:22.976Z,224.00
2019-04-07T05:11:23.834Z,228.00
2019-04-07T05:12:23.213Z,236.00
2019-04-07T05:13:22.943Z,240.00
2019-04-07T05:14:22.944Z,244.00
2019-04-07T05:15:23.085Z,248.00
2019-04-07T05:16:23.119Z,256.00
2019-04-07T05:17:23.185Z,256.00
2019-04-07T05:18:22.887Z,264.00
2019-04-07T05:19:23.681Z,268.00
2019-04-07T05:20:22.965Z,276.00
2019-04-07T05:21:22.849Z,276.00
2019-04-07T05:22:22.931Z,284.00
2019-04-07T05:23:23.116Z,288.00
2019-04-07T05:24:22.828Z,292.00
2019-04-07T05:25:22.820Z,296.00
2019-04-07T05:26:23.934Z,300.00
2019-04-07T05:27:22.920Z,304.00
2019-04-07T05:28:22.816Z,308.00
2019-04-07T05:29:22.764Z,316.00
2019-04-07T05:30:22.751Z,320.00
2019-04-07T05:31:23.197Z,324.00
2019-04-07T05:32:23.279Z,328.00
2019-04-07T05:33:22.724Z,336.00
2019-04-07T05:34:23.069Z,336.00
2019-04-07T05:35:22.699Z,340.00
2019-04-07T05:36:22.700Z,348.00
2019-04-07T05:37:23.038Z,352.00
2019-04-07T05:38:23.393Z,360.00
2019-04-07T05:39:22.976Z,360.00
2019-04-07T05:40:22.853Z,368.00
2019-04-07T05:41:22.991Z,372.00
2019-04-07T05:42:22.665Z,376.00
2019-04-07T05:43:22.753Z,384.00
2019-04-07T05:44:23.192Z,384.00
2019-04-07T05:45:22.689Z,392.00
2019-04-07T05:46:22.822Z,400.00
2019-04-07T05:47:22.591Z,408.00
2019-04-07T05:48:22.775Z,416.00
2019-04-07T05:49:24.180Z,428.00
2019-04-07T05:50:26.879Z,440.00
2019-04-07T05:51:22.890Z,452.00
2019-04-07T05:52:22.782Z,460.00
2019-04-07T05:53:23.262Z,472.00
2019-04-07T05:54:22.543Z,484.00
2019-04-07T05:55:24.011Z,500.00
2019-04-07T05:56:25.887Z,512.00
2019-04-07T05:57:24.031Z,528.00
2019-04-07T05:58:23.276Z,536.00
2019-04-07T05:59:22.574Z,548.00
2019-04-07T06:00:23.369Z,564.00
2019-04-07T06:01:23.700Z,572.00
2019-04-07T06:02:22.413Z,580.00
2019-04-07T06:03:22.809Z,588.00
2019-04-07T06:04:22.381Z,596.00
2019-04-07T06:05:22.881Z,608.00
2019-04-07T06:06:22.612Z,628.00
2019-04-07T06:07:25.708Z,648.00
2019-04-07T06:08:30.272Z,664.00
2019-04-07T06:09:24.042Z,672.00
2019-04-07T06:10:26.457Z,680.00
2019-04-07T06:11:23.349Z,688.00
2019-04-07T06:12:22.660Z,696.00
2019-04-07T06:13:22.524Z,704.00
2019-04-07T06:14:22.659Z,712.00
2019-04-07T06:15:23.072Z,720.00
2019-04-07T06:16:22.575Z,732.00
2019-04-07T06:17:25.655Z,736.00
2019-04-07T06:18:22.904Z,748.00
2019-04-07T06:19:22.234Z,760.00
2019-04-07T06:20:22.543Z,768.00
2019-04-07T06:21:22.258Z,776.00
2019-04-07T06:22:23.543Z,788.00
2019-04-07T06:23:24.708Z,800.00
2019-04-07T06:24:22.515Z,812.00
2019-04-07T06:25:22.157Z,820.00
2019-04-07T06:26:22.312Z,832.00
2019-04-07T06:27:22.823Z,836.00
2019-04-07T06:28:22.737Z,848.00
2019-04-07T06:29:24.673Z,852.00
2019-04-07T06:30:22.178Z,864.00
2019-04-07T06:31:24.539Z,872.00
2019-04-07T06:32:22.093Z,884.00
2019-04-07T06:33:22.135Z,888.00
2019-04-07T06:34:22.645Z,896.00
2019-04-07T06:35:22.458Z,908.00
2019-04-07T06:36:22.204Z,916.00
2019-04-07T06:37:25.864Z,920.00
2019-04-07T06:38:31.287Z,932.00
2019-04-07T06:39:23.240Z,940.00
2019-04-07T06:40:22.313Z,944.00
2019-04-07T06:41:24.275Z,952.00
2019-04-07T06:42:23.006Z,960.00
2019-04-07T06:43:22.322Z,968.00
2019-04-07T06:44:23.209Z,972.00
2019-04-07T06:45:23.375Z,932.00
2019-04-07T06:46:26.051Z,884.00
2019-04-07T06:47:22.967Z,916.00
2019-04-07T06:48:22.230Z,892.00
2019-04-07T06:49:21.983Z,796.00
2019-04-07T06:50:22.451Z,788.00
2019-04-07T06:51:21.879Z,840.00
2019-04-07T06:52:22.620Z,852.00
2019-04-07T06:53:21.872Z,860.00
2019-04-07T06:54:22.332Z,868.00
2019-04-07T06:55:22.651Z,876.00
2019-04-07T06:56:22.002Z,884.00
2019-04-07T06:57:21.822Z,888.00
2019-04-07T06:58:21.892Z,900.00
2019-04-07T06:59:21.995Z,904.00
2019-04-07T07:00:24.438Z,912.00
2019-04-07T07:01:24.485Z,920.00
2019-04-07T07:02:22.499Z,932.00
2019-04-07T07:03:21.747Z,948.00
2019-04-07T07:04:22.309Z,956.00
2019-04-07T07:05:22.283Z,968.00
2019-04-07T07:06:21.924Z,972.00
2019-04-07T07:07:21.716Z,972.00
2019-04-07T07:08:22.197Z,980.00
2019-04-07T07:09:25.697Z,980.00
2019-04-07T07:10:28.710Z,996.00
2019-04-07T07:11:28.761Z,996.00
2019-04-07T07:12:30.818Z,1000.00
2019-04-07T07:13:29.926Z,1000.00
2019-04-07T07:14:32.915Z,1000.00
2019-04-07T07:15:23.398Z,1004.00
2019-04-07T07:16:21.882Z,1008.00
2019-04-07T07:17:22.413Z,1016.00
2019-04-07T07:18:23.827Z,1020.00
2019-04-07T07:19:24.444Z,1028.00
2019-04-07T07:20:21.771Z,1028.00
2019-04-07T07:21:24.145Z,1024.00
2019-04-07T07:22:21.576Z,1032.00
2019-04-07T07:23:22.032Z,1028.00
2019-04-07T07:24:25.273Z,1040.00
2019-04-07T07:25:21.550Z,1040.00
2019-04-07T07:26:21.951Z,1048.00
2019-04-07T07:27:21.795Z,1044.00
2019-04-07T07:28:21.481Z,1036.00
2019-04-07T07:29:21.484Z,1036.00
2019-04-07T07:30:21.527Z,1044.00
2019-04-07T07:31:24.717Z,1040.00
2019-04-07T07:32:21.605Z,1044.00
2019-04-07T07:33:21.430Z,1048.00
2019-04-07T07:34:22.042Z,1052.00
2019-04-07T07:35:21.406Z,1064.00
2019-04-07T07:36:22.667Z,1076.00
2019-04-07T07:37:24.844Z,1084.00
2019-04-07T07:38:21.410Z,1108.00
2019-04-07T07:39:22.951Z,1112.00
2019-04-07T07:40:22.102Z,1128.00
2019-04-07T07:41:22.998Z,1144.00
2019-04-07T07:42:23.112Z,1172.00
2019-04-07T07:43:21.901Z,1200.00
2019-04-07T07:44:21.318Z,1224.00
2019-04-07T07:45:21.765Z,1244.00
2019-04-07T07:46:22.868Z,1284.00
2019-04-07T07:47:22.610Z,1296.00
2019-04-07T07:48:26.077Z,1308.00
2019-04-07T07:49:22.251Z,1320.00
2019-04-07T07:50:21.252Z,1328.00
2019-04-07T07:51:21.455Z,1340.00
2019-04-07T07:52:21.999Z,1356.00
2019-04-07T07:53:23.897Z,1108.00
2019-04-07T07:54:22.967Z,3056.00
2019-04-07T07:55:21.832Z,3292.00
2019-04-07T07:56:21.400Z,15300.00
2019-04-07T07:57:23.551Z,34880.00
2019-04-07T07:58:21.157Z,44960.00
2019-04-07T07:59:21.803Z,43456.00
2019-04-07T08:00:21.140Z,42560.00
2019-04-07T08:01:21.133Z,43072.00
2019-04-07T08:02:21.885Z,42208.00
2019-04-07T08:03:22.843Z,43456.00
2019-04-07T08:04:24.913Z,46176.00
2019-04-07T08:05:22.761Z,48480.00
2019-04-07T08:06:21.565Z,49632.00
2019-04-07T08:07:21.054Z,50208.00
2019-04-07T08:08:21.187Z,49824.00
2019-04-07T08:09:23.693Z,51680.00
2019-04-07T08:10:23.350Z,52032.00
2019-04-07T08:11:21.015Z,52032.00
2019-04-07T08:12:21.625Z,52576.00
2019-04-07T08:13:21.335Z,52992.00
2019-04-07T08:14:21.645Z,53440.00
2019-04-07T08:15:25.431Z,53856.00
2019-04-07T08:16:21.987Z,54592.00
2019-04-07T08:17:20.953Z,55840.00
2019-04-07T08:18:21.581Z,56544.00
2019-04-07T08:19:21.150Z,57536.00
2019-04-07T08:20:20.924Z,57120.00
2019-04-07T08:21:20.912Z,57056.00
2019-04-07T08:22:29.966Z,57696.00
2019-04-07T08:23:22.057Z,58240.00
2019-04-07T08:24:20.876Z,57344.00
2019-04-07T08:25:24.441Z,58528.00
2019-04-07T08:26:24.315Z,57216.00
2019-04-07T08:27:21.616Z,54848.00
2019-04-07T08:28:21.585Z,55328.00
2019-04-07T08:29:21.439Z,58432.00
2019-04-07T08:30:20.814Z,60384.00
2019-04-07T08:31:21.561Z,60128.00
2019-04-07T08:32:24.266Z,58880.00
2019-04-07T08:33:20.771Z,55456.00
2019-04-07T08:34:20.760Z,24736.00
2019-04-07T08:35:20.759Z,4332.00
2019-04-07T08:36:20.873Z,3928.00
2019-04-07T08:37:21.799Z,3468.00
2019-04-07T08:38:25.337Z,3084.00
2019-04-07T08:39:25.627Z,2888.00
2019-04-07T08:40:21.735Z,2808.00
2019-04-07T08:41:20.684Z,2772.00
2019-04-07T08:42:20.846Z,2812.00
2019-04-07T08:43:22.783Z,2804.00
2019-04-07T08:44:20.672Z,2756.00
2019-04-07T08:45:21.155Z,2732.00
2019-04-07T08:46:20.653Z,2800.00
2019-04-07T08:47:22.304Z,2956.00
2019-04-07T08:48:21.589Z,3160.00
2019-04-07T08:49:23.595Z,3264.00
2019-04-07T08:50:21.935Z,3160.00
2019-04-07T08:51:21.230Z,3028.00
2019-04-07T08:52:21.095Z,3084.00
2019-04-07T08:53:20.557Z,3812.00
2019-04-07T08:54:20.565Z,33728.00
2019-04-07T08:55:21.817Z,51552.00
2019-04-07T08:56:20.567Z,1928.00
2019-04-07T08:57:21.300Z,4476.00
2019-04-07T08:58:26.420Z,4364.00
2019-04-07T08:59:21.892Z,4184.00
2019-04-07T09:00:21.381Z,3796.00
2019-04-07T09:01:21.163Z,3772.00
2019-04-07T09:02:22.419Z,5872.00
2019-04-07T09:03:20.842Z,3532.00
2019-04-07T09:04:20.730Z,3736.00
2019-04-07T09:05:25.605Z,3784.00
2019-04-07T09:06:21.539Z,4220.00
2019-04-07T09:07:23.337Z,5192.00
2019-04-07T09:08:20.489Z,5552.00
2019-04-07T09:09:31.197Z,5472.00
2019-04-07T09:10:21.780Z,5480.00
2019-04-07T09:11:22.434Z,5480.00
2019-04-07T09:12:20.667Z,5476.00
2019-04-07T09:13:20.808Z,5528.00
2019-04-07T09:14:20.352Z,5560.00
2019-04-07T09:15:20.318Z,5592.00
2019-04-07T09:16:20.381Z,5616.00
2019-04-07T09:17:30.773Z,5596.00
2019-04-07T09:18:21.284Z,5716.00
2019-04-07T09:19:20.373Z,5776.00
2019-04-07T09:20:20.271Z,5860.00
2019-04-07T09:21:20.740Z,6116.00
2019-04-07T09:22:22.864Z,7668.00
2019-04-07T09:23:20.237Z,9896.00
2019-04-07T09:24:20.221Z,12720.00
2019-04-07T09:25:20.409Z,18176.00
2019-04-07T09:26:21.895Z,18976.00
2019-04-07T09:27:23.388Z,26592.00
2019-04-07T09:28:23.373Z,32704.00
2019-04-07T09:29:20.972Z,37632.00
2019-04-07T09:30:20.749Z,41088.00
2019-04-07T09:31:20.156Z,44576.00
2019-04-07T09:32:20.947Z,50144.00
2019-04-07T09:33:20.123Z,46336.00
2019-04-07T09:34:21.189Z,42752.00
2019-04-07T09:35:22.885Z,33984.00
2019-04-07T09:36:20.096Z,51328.00
2019-04-07T09:37:22.014Z,55296.00
2019-04-07T09:38:21.712Z,48992.00
2019-04-07T09:39:20.273Z,57952.00
2019-04-07T09:40:20.193Z,55232.00
2019-04-07T09:41:23.102Z,59744.00
2019-04-07T09:42:24.369Z,60384.00
2019-04-07T09:43:20.015Z,60992.00
2019-04-07T09:44:20.856Z,61088.00
2019-04-07T09:45:20.000Z,57824.00
2019-04-07T09:46:20.305Z,6096.00
2019-04-07T09:47:19.977Z,6224.00
2019-04-07T09:48:21.224Z,6396.00
2019-04-07T09:49:22.391Z,6808.00
2019-04-07T09:50:20.409Z,7820.00
2019-04-07T09:51:20.662Z,9056.00
2019-04-07T09:52:19.932Z,11760.00
2019-04-07T09:53:21.356Z,17312.00
2019-04-07T09:54:21.928Z,18496.00
2019-04-07T09:55:19.907Z,22304.00
2019-04-07T09:56:19.900Z,24480.00
2019-04-07T09:57:20.122Z,29056.00
2019-04-07T09:58:20.329Z,35520.00
2019-04-07T09:59:20.328Z,42496.00
2019-04-07T10:00:22.872Z,40512.00
2019-04-07T10:01:20.996Z,47712.00
2019-04-07T10:02:19.838Z,47808.00
2019-04-07T10:03:19.810Z,49440.00
2019-04-07T10:04:19.848Z,42592.00
2019-04-07T10:05:19.815Z,39616.00
2019-04-07T10:06:19.773Z,40192.00
2019-04-07T10:07:20.521Z,42464.00
2019-04-07T10:08:20.326Z,42240.00
2019-04-07T10:09:20.338Z,40576.00
2019-04-07T10:10:19.737Z,44160.00
2019-04-07T10:11:19.782Z,43296.00
2019-04-07T10:12:19.734Z,50144.00
2019-04-07T10:13:19.698Z,45920.00
2019-04-07T10:14:19.702Z,44416.00
2019-04-07T10:15:19.891Z,38784.00
2019-04-07T10:16:20.054Z,43008.00
2019-04-07T10:17:19.708Z,41824.00
2019-04-07T10:18:20.442Z,31776.00
2019-04-07T10:19:20.110Z,18624.00
2019-04-07T10:20:22.032Z,8476.00
2019-04-07T10:21:19.672Z,7476.00
2019-04-07T10:22:19.792Z,7212.00
2019-04-07T10:23:19.674Z,7112.00
2019-04-07T10:24:19.789Z,7940.00
2019-04-07T10:25:19.967Z,8844.00
2019-04-07T10:26:20.093Z,9092.00
2019-04-07T10:27:20.431Z,15800.00
2019-04-07T10:28:19.543Z,21728.00
2019-04-07T10:29:19.774Z,25920.00
2019-04-07T10:30:20.062Z,27616.00
2019-04-07T10:31:20.867Z,24544.00
2019-04-07T10:32:20.063Z,26304.00
2019-04-07T10:33:19.519Z,30880.00
2019-04-07T10:34:19.473Z,26176.00
2019-04-07T10:35:19.461Z,23136.00
2019-04-07T10:36:19.563Z,18784.00
2019-04-07T10:37:19.451Z,16192.00
2019-04-07T10:38:20.013Z,15432.00
2019-04-07T10:39:19.848Z,14476.00
2019-04-07T10:40:21.243Z,13124.00
2019-04-07T10:41:19.433Z,12224.00
2019-04-07T10:42:20.099Z,12232.00
2019-04-07T10:43:19.633Z,11556.00
2019-04-07T10:44:19.482Z,10944.00
2019-04-07T10:45:19.353Z,10544.00
2019-04-07T10:46:19.340Z,10324.00
2019-04-07T10:47:19.479Z,9432.00
2019-04-07T10:48:20.173Z,9052.00
2019-04-07T10:49:19.319Z,9388.00
2019-04-07T10:50:20.015Z,9552.00
2019-04-07T10:51:19.757Z,9380.00
2019-04-07T10:52:19.760Z,9148.00
2019-04-07T10:53:19.589Z,9156.00
2019-04-07T10:54:19.934Z,9076.00
2019-04-07T10:55:20.578Z,9308.00
2019-04-07T10:56:19.933Z,9424.00
2019-04-07T10:57:19.931Z,9512.00
2019-04-07T10:58:19.837Z,9416.00
2019-04-07T10:59:19.922Z,9072.00
2019-04-07T11:00:19.338Z,9116.00
2019-04-07T11:01:19.533Z,9016.00
2019-04-07T11:02:19.286Z,8952.00
2019-04-07T11:03:19.707Z,9080.00
2019-04-07T11:04:19.225Z,8628.00
2019-04-07T11:05:19.127Z,8636.00
2019-04-07T11:06:19.241Z,8596.00
2019-04-07T11:07:19.142Z,8496.00
2019-04-07T11:08:20.145Z,8332.00
2019-04-07T11:09:19.083Z,8120.00
2019-04-07T11:10:30.542Z,7932.00
2019-04-07T11:11:20.265Z,7756.00
2019-04-07T11:12:19.854Z,7648.00
2019-04-07T11:13:19.043Z,7760.00
2019-04-07T11:14:19.026Z,7924.00
2019-04-07T11:15:19.031Z,8228.00
2019-04-07T11:16:19.007Z,8044.00
2019-04-07T11:17:19.383Z,7848.00
2019-04-07T11:18:19.149Z,8712.00
2019-04-07T11:19:18.972Z,8992.00
2019-04-07T11:20:19.395Z,9196.00
2019-04-07T11:21:18.952Z,8756.00
2019-04-07T11:22:19.842Z,8020.00
2019-04-07T11:23:18.940Z,8352.00
2019-04-07T11:24:19.623Z,8224.00
2019-04-07T11:25:18.917Z,8780.00
2019-04-07T11:26:18.988Z,8924.00
2019-04-07T11:27:19.133Z,9092.00
2019-04-07T11:28:19.549Z,9116.00
2019-04-07T11:29:19.377Z,9008.00
2019-04-07T11:30:18.853Z,7916.00
2019-04-07T11:31:19.591Z,14124.00
2019-04-07T11:32:19.574Z,14636.00
2019-04-07T11:33:19.327Z,20544.00
2019-04-07T11:34:19.375Z,26304.00
2019-04-07T11:35:18.796Z,27200.00
2019-04-07T11:36:21.551Z,9728.00
2019-04-07T11:37:18.997Z,9304.00
2019-04-07T11:38:19.705Z,28608.00
2019-04-07T11:39:18.970Z,44160.00
2019-04-07T11:40:19.244Z,44320.00
2019-04-07T11:41:21.524Z,48288.00
2019-04-07T11:42:19.643Z,52576.00
2019-04-07T11:43:19.500Z,49600.00
2019-04-07T11:44:20.190Z,47424.00
2019-04-07T11:45:19.396Z,46976.00
2019-04-07T11:46:18.867Z,43072.00
2019-04-07T11:47:19.432Z,30720.00
2019-04-07T11:48:18.659Z,67552.00
2019-04-07T11:49:19.490Z,72064.00
2019-04-07T11:50:18.905Z,70464.00
2019-04-07T11:51:19.342Z,67712.00
2019-04-07T11:52:18.626Z,68000.00
2019-04-07T11:53:18.621Z,4100.00
2019-04-07T11:54:18.617Z,3576.00
2019-04-07T11:55:18.586Z,3392.00
2019-04-07T11:56:18.615Z,3824.00
2019-04-07T11:57:18.562Z,5104.00
2019-04-07T11:58:25.518Z,5296.00
2019-04-07T11:59:20.337Z,4004.00
2019-04-07T12:00:19.445Z,3904.00
2019-04-07T12:01:18.753Z,5368.00
2019-04-07T12:02:19.826Z,75104.00
2019-04-07T12:03:19.179Z,2928.00
2019-04-07T12:04:18.600Z,3164.00
2019-04-07T12:05:18.478Z,3472.00
2019-04-07T12:06:19.168Z,2984.00
2019-04-07T12:07:20.197Z,3036.00
2019-04-07T12:08:18.548Z,3352.00
2019-04-07T12:09:18.453Z,3660.00
2019-04-07T12:10:18.432Z,2896.00
2019-04-07T12:11:18.413Z,2544.00
2019-04-07T12:12:18.404Z,2732.00
2019-04-07T12:13:18.441Z,2632.00
2019-04-07T12:14:19.146Z,2768.00
2019-04-07T12:15:22.044Z,2572.00
2019-04-07T12:16:20.131Z,3284.00
2019-04-07T12:17:18.813Z,1572.00
2019-04-07T12:18:19.245Z,2892.00
2019-04-07T12:19:20.490Z,2828.00
2019-04-07T12:20:18.331Z,2856.00
2019-04-07T12:21:22.231Z,2696.00
2019-04-07T12:22:19.307Z,2496.00
2019-04-07T12:23:24.055Z,2032.00
2019-04-07T12:24:19.270Z,1748.00
2019-04-07T12:25:18.977Z,1688.00
2019-04-07T12:26:18.912Z,1304.00
2019-04-07T12:27:21.167Z,1804.00
2019-04-07T12:28:19.412Z,2680.00
2019-04-07T12:29:18.864Z,1620.00
2019-04-07T12:30:19.109Z,1472.00
2019-04-07T12:31:18.560Z,2200.00